Data for 01/22/2017

Time Sea-Level Adjusted Pressure Absolute Pressure Temperature Relative Humidity Dew Point   
(mb) (inHg) (mb) (inHg) (C) (F) (%) (C) (F)
00:05 1010 29.83 839 24.78 -1.9 28.5 63 -8.1 17.4
00:10 1010 29.83 839 24.78 -1.7 28.9 60 -8.5 16.8
00:15 1010 29.83 839 24.78 -1.5 29.3 60 -8.2 17.2
00:20 1010 29.83 839 24.78 -1.7 29 61 -8.2 17.3
00:25 1010 29.83 839 24.78 -1.8 28.7 62 -8.3 17.1
00:30 1010 29.83 839 24.78 -1.7 28.9 61 -8.3 17
00:35 1010 29.83 839 24.78 -1.7 29 62 -8.1 17.5
00:40 1010 29.83 839 24.78 -2 28.4 62 -8.3 17.1
00:45 1010 29.83 839 24.78 -2.4 27.7 65 -8 17.6
00:50 1010 29.83 839 24.78 -3.1 26.4 69 -8 17.6
00:55 1010 29.83 840 24.81 -3.7 25.4 70 -8.3 17
01:00 1010 29.83 840 24.81 -4.1 24.6 72 -8.4 16.8
01:05 1010 29.83 840 24.81 -4.2 24.4 72 -8.6 16.6
01:10 1010 29.83 840 24.81 -4 24.8 70 -8.7 16.4
01:15 1010 29.83 840 24.81 -3.8 25.2 70 -8.5 16.7
01:20 1010 29.83 840 24.81 -3.5 25.7 69 -8.5 16.7
01:25 1011 29.85 840 24.81 -3.3 26.1 67 -8.5 16.6
01:30 1011 29.85 840 24.81 -3.1 26.4 66 -8.6 16.6
01:35 1011 29.85 840 24.81 -3.1 26.5 66 -8.6 16.6
01:40 1011 29.85 840 24.81 -3.2 26.3 66 -8.6 16.6
01:45 1011 29.85 840 24.81 -3.3 26.1 68 -8.4 16.8
01:50 1011 29.85 840 24.81 -3.3 26.1 67 -8.5 16.7
01:55 1011 29.85 840 24.81 -3.5 25.8 69 -8.4 16.8
02:00 1011 29.85 840 24.81 -3.5 25.7 68 -8.5 16.7
02:05 1011 29.85 840 24.81 -3.4 26 68 -8.4 16.8
02:10 1011 29.85 840 24.81 -3.3 26 68 -8.5 16.7
02:15 1011 29.85 840 24.81 -3.5 25.7 68 -8.5 16.7
02:20 1011 29.85 840 24.81 -3.5 25.7 68 -8.6 16.5
02:25 1011 29.85 840 24.81 -3.7 25.4 69 -8.6 16.5
02:30 1011 29.85 840 24.81 -3.6 25.5 69 -8.6 16.5
02:35 1011 29.85 840 24.81 -3.5 25.8 68 -8.6 16.5
02:40 1011 29.85 840 24.81 -3.4 25.9 67 -8.7 16.4
02:45 1011 29.85 840 24.81 -3.4 26 68 -8.4 16.9
02:50 1011 29.85 841 24.83 -3.4 25.9 68 -8.4 16.9
02:55 1011 29.85 841 24.83 -3.5 25.7 68 -8.6 16.6
03:00 1011 29.85 841 24.83 -3.5 25.8 68 -8.6 16.5
03:05 1011 29.85 841 24.83 -3.6 25.6 68 -8.6 16.5
03:10 1012 29.88 841 24.83 -3.7 25.3 67 -8.9 16
03:15 1012 29.88 841 24.83 -3.7 25.3 67 -8.9 16
03:20 1012 29.88 841 24.83 -4.1 24.6 70 -8.8 16.1
03:25 1012 29.88 841 24.83 -4.4 24 69 -9.3 15.2
03:30 1012 29.88 841 24.83 -4.3 24.3 68 -9.3 15.3
03:35 1012 29.88 841 24.83 -4.4 24 69 -9.3 15.2
03:40 1012 29.88 841 24.83 -5 23 73 -9.2 15.5
03:45 1012 29.88 841 24.83 -5.1 22.9 71 -9.6 14.7
03:50 1012 29.88 841 24.83 -5 23 70 -9.7 14.6
03:55 1012 29.88 841 24.83 -5.1 22.8 71 -9.6 14.7
04:00 1012 29.88 841 24.83 -5.5 22.1 70 -10.1 13.8
04:05 1012 29.88 841 24.83 -5.8 21.6 71 -10.2 13.7
04:10 1012 29.88 841 24.83 -5.3 22.5 69 -10.1 13.9
04:15 1012 29.88 841 24.83 -5.3 22.5 69 -10.1 13.8
04:20 1012 29.88 841 24.83 -5.2 22.6 69 -10.1 13.8
04:25 1012 29.88 841 24.83 -5.1 22.8 68 -10.2 13.7
04:30 1012 29.88 841 24.83 -5.2 22.7 68 -10.1 13.7
04:35 1012 29.88 841 24.83 -5.4 22.3 68 -10.3 13.4
04:40 1012 29.88 841 24.83 -5.7 21.7 71 -10.2 13.6
04:45 1012 29.88 841 24.83 -5.9 21.4 70 -10.5 13.2
04:50 1012 29.88 841 24.83 -6 21.1 71 -10.6 13
04:55 1012 29.88 841 24.83 -5.8 21.5 70 -10.5 13
05:00 1012 29.88 841 24.83 -6.1 21 70 -10.7 12.7
05:05 1012 29.88 841 24.83 -6.1 21 71 -10.6 12.9
05:10 1012 29.88 841 24.83 -5.8 21.6 69 -10.6 12.9
05:15 1012 29.88 841 24.83 -5.4 22.2 67 -10.6 13
05:20 1012 29.88 841 24.83 -5.3 22.4 67 -10.5 13
05:25 1012 29.88 841 24.83 -5.3 22.5 67 -10.5 13.1
05:30 1012 29.88 841 24.83 -5.3 22.4 67 -10.6 13
05:35 1012 29.88 841 24.83 -5.4 22.2 68 -10.5 13.1
05:40 1012 29.88 841 24.83 -5.7 21.7 70 -10.3 13.4
05:45 1012 29.88 841 24.83 -5 22.9 67 -10.3 13.5
05:50 1012 29.88 841 24.83 -5.6 22 70 -10.2 13.6
05:55 1012 29.88 841 24.83 -5.8 21.5 71 -10.4 13.3
06:00 1012 29.88 841 24.83 -5.4 22.4 67 -10.6 13
06:05 1012 29.88 841 24.83 -5.3 22.5 67 -10.5 13.1
06:10 1012 29.88 841 24.83 -5.5 22.1 68 -10.6 13
06:15 1012 29.88 841 24.83 -5.4 22.3 66 -10.7 12.7
06:20 1012 29.88 841 24.83 -5.2 22.6 65 -10.7 12.7
06:25 1012 29.88 841 24.83 -5 23 64 -10.8 12.5
06:30 1012 29.88 841 24.83 -5.2 22.6 67 -10.5 13
06:35 1012 29.88 841 24.83 -5.5 22 69 -10.4 13.3
06:40 1012 29.88 841 24.83 -5.1 22.8 66 -10.5 13.1
06:45 1012 29.88 841 24.83 -5.1 22.8 67 -10.3 13.5
06:50 1012 29.88 841 24.83 -5.6 21.9 68 -10.5 13.1
06:55 1012 29.88 841 24.83 -5.2 22.7 64 -10.9 12.4
07:00 1012 29.88 841 24.83 -5.2 22.7 66 -10.5 13.1
07:05 1012 29.88 841 24.83 -5.5 22.2 68 -10.5 13
07:10 1012 29.88 841 24.83 -5.7 21.7 70 -10.4 13.2
07:15 1012 29.88 841 24.83 -5.8 21.6 70 -10.5 13.2
07:20 1012 29.88 841 24.83 -5.7 21.8 68 -10.6 12.9
07:25 1012 29.88 841 24.83 -5.8 21.5 68 -10.9 12.4
07:30 1012 29.88 841 24.83 -5.8 21.5 68 -10.8 12.5
07:35 1012 29.88 841 24.83 -5.8 21.6 68 -10.7 12.7
07:40 1012 29.88 841 24.83 -5.8 21.6 67 -11 12.2
07:45 1012 29.88 841 24.83 -5.7 21.7 66 -11.1 12.1
07:50 1012 29.88 841 24.83 -5.7 21.8 66 -11 12.2
07:55 1012 29.88 841 24.83 -5.7 21.7 67 -10.9 12.5
08:00 1012 29.88 841 24.83 -5.4 22.2 65 -10.9 12.4
08:05 1012 29.88 842 24.86 -5.1 22.8 65 -10.8 12.6
08:10 1012 29.88 842 24.86 -5 23.1 64 -10.8 12.6
08:15 1012 29.88 842 24.86 -5 23.1 63 -11 12.3
08:20 1013 29.91 842 24.86 -4.7 23.6 61 -11 12.2
08:25 1013 29.91 842 24.86 -4.5 23.9 60 -11.2 11.9
08:30 1013 29.91 842 24.86 -4.9 23.2 61 -11.2 11.8
08:35 1012 29.88 842 24.86 -5.4 22.4 62 -11.5 11.3
08:40 1013 29.91 842 24.86 -5.3 22.4 63 -11.4 11.4
08:45 1013 29.91 842 24.86 -5.2 22.7 62 -11.4 11.4
08:50 1013 29.91 842 24.86 -4.9 23.1 61 -11.4 11.5
08:55 1013 29.91 842 24.86 -4.7 23.5 60 -11.4 11.5
09:00 1013 29.91 842 24.86 -4.5 23.8 59 -11.4 11.4
09:05 1013 29.91 842 24.86 -4.2 24.4 57 -11.4 11.4
09:10 1013 29.91 842 24.86 -4.1 24.6 57 -11.4 11.5
09:15 1013 29.91 842 24.86 -3.9 25 56 -11.4 11.4
09:20 1013 29.91 842 24.86 -3.6 25.6 55 -11.4 11.4
09:25 1013 29.91 842 24.86 -3.1 26.4 53 -11.4 11.4
09:30 1012 29.88 842 24.86 -2.9 26.7 52 -11.4 11.5
09:35 1012 29.88 842 24.86 -3.4 25.8 54 -11.5 11.3
09:40 1013 29.91 842 24.86 -3.6 25.6 54 -11.7 10.9
09:45 1012 29.88 842 24.86 -3.5 25.8 53 -11.7 11
09:50 1013 29.91 842 24.86 -3.3 26 53 -11.6 11.1
09:55 1012 29.88 842 24.86 -2.9 26.7 52 -11.4 11.5
10:00 1012 29.88 842 24.86 -2.9 26.7 52 -11.5 11.3
10:05 1013 29.91 842 24.86 -2.6 27.3 51 -11.3 11.6
10:10 1013 29.91 842 24.86 -2.1 28.2 51 -11.1 12.1
10:15 1013 29.91 842 24.86 -2.3 27.9 51 -11.1 12
10:20 1013 29.91 842 24.86 -1.3 29.6 48 -11.1 12.1
10:25 1013 29.91 842 24.86 -0.9 30.4 47 -10.9 12.4
10:30 1013 29.91 842 24.86 -0.7 30.7 47 -10.6 12.9
10:35 1013 29.91 842 24.86 -0.5 31.1 45 -11.2 11.9
10:40 1012 29.88 842 24.86 -0.4 31.4 48 -10.1 13.7
10:45 1012 29.88 842 24.86 -1.1 29.9 49 -10.6 12.8
10:50 1012 29.88 842 24.86 -1.2 29.9 49 -10.7 12.8
10:55 1012 29.88 841 24.83 -0.9 30.3 47 -10.9 12.4
11:00 1012 29.88 841 24.83 -0.4 31.3 46 -10.7 12.7
11:05 1012 29.88 841 24.83 -0.5 31.2 46 -10.8 12.6
11:10 1012 29.88 841 24.83 -0 32 44 -10.8 12.6
11:15 1012 29.88 841 24.83 0.7 33.3 43 -10.6 12.9
11:20 1012 29.88 841 24.83 1.3 34.4 42 -10.3 13.4
11:25 1012 29.88 841 24.83 0.8 33.4 45 -10 14.1
11:30 1012 29.88 841 24.83 0.4 32.7 44 -10.4 13.3
11:35 1012 29.88 841 24.83 0.3 32.6 46 -10.1 13.9
11:40 1012 29.88 841 24.83 0.5 32.9 45 -10.2 13.7
11:45 1011 29.85 841 24.83 0.5 32.9 44 -10.5 13.2
11:50 1011 29.85 841 24.83 0.4 32.8 45 -10.3 13.5
11:55 1011 29.85 841 24.83 0.4 32.7 44 -10.4 13.3
12:00 1011 29.85 840 24.81 0.8 33.5 43 -10.3 13.5
12:05 1011 29.85 840 24.81 1.6 34.8 41 -10.3 13.4
12:10 1011 29.85 840 24.81 3 37.4 37 -10.2 13.6
12:15 1011 29.85 840 24.81 3.3 37.9 36 -10.3 13.4
12:20 1011 29.85 840 24.81 3.3 38 37 -10.2 13.6
12:25 1011 29.85 840 24.81 3.2 37.8 37 -10.1 13.7
12:30 1011 29.85 840 24.81 3.4 38.2 38 -9.7 14.5
12:35 1011 29.85 840 24.81 3.4 38.2 39 -9.4 15.1
12:40 1011 29.85 840 24.81 3.5 38.3 39 -9.2 15.4
12:45 1011 29.85 840 24.81 3.2 37.8 41 -8.9 16
12:50 1011 29.85 840 24.81 2.4 36.4 44 -8.5 16.6
12:55 1010 29.83 840 24.81 2 35.5 44 -8.9 16
13:00 1010 29.83 840 24.81 2.2 36 43 -9 15.9
13:05 1010 29.83 839 24.78 2.5 36.6 40 -9.7 14.5
13:10 1010 29.83 839 24.78 3.1 37.7 41 -8.7 16.3
13:15 1010 29.83 839 24.78 3.3 37.9 39 -9.3 15.2
13:20 1010 29.83 839 24.78 2.9 37.2 40 -9.5 14.9
13:25 1010 29.83 839 24.78 3.1 37.5 39 -9.6 14.7
13:30 1010 29.83 839 24.78 2 35.6 41 -9.8 14.4
13:35 1010 29.83 839 24.78 2.3 36.1 41 -9.5 14.8
13:40 1010 29.83 839 24.78 2.2 36 45 -8.6 16.5
13:45 1009 29.8 839 24.78 1.2 34.2 43 -9.9 14.2
13:50 1009 29.8 839 24.78 1.5 34.7 42 -10.1 13.9
13:55 1009 29.8 838 24.75 1.8 35.3 40 -10.4 13.3
14:00 1009 29.8 838 24.75 3.1 37.6 40 -9.3 15.3
14:05 1009 29.8 838 24.75 3.3 38 37 -10 14.1
14:10 1009 29.8 838 24.75 3.3 37.9 40 -8.9 15.9
14:15 1009 29.8 838 24.75 2.3 36.1 42 -9.3 15.3
14:20 1009 29.8 838 24.75 1.8 35.3 42 -9.6 14.6
14:25 1009 29.8 838 24.75 2.3 36.1 43 -9.2 15.5
14:30 1009 29.8 838 24.75 3.2 37.7 41 -8.9 16
14:35 1009 29.8 838 24.75 2.9 37.3 41 -9.2 15.5
14:40 1009 29.8 838 24.75 3.2 37.7 38 -9.7 14.5
14:45 1009 29.8 838 24.75 2.8 37 42 -8.9 16.1
14:50 1009 29.8 838 24.75 2.8 37 42 -8.8 16.1
14:55 1009 29.8 838 24.75 2.9 37.2 42 -8.8 16.2
15:00 1009 29.8 838 24.75 2.7 36.9 42 -8.9 15.9
15:05 1008 29.77 838 24.75 2.7 36.9 40 -9.6 14.8
15:10 1008 29.77 838 24.75 2.6 36.7 41 -9.5 15
15:15 1008 29.77 838 24.75 2.5 36.6 40 -9.6 14.6
15:20 1008 29.77 837 24.72 2.5 36.5 40 -9.8 14.3
15:25 1008 29.77 837 24.72 2.6 36.6 41 -9.5 14.9
15:30 1008 29.77 837 24.72 2 35.7 40 -10.2 13.6
15:35 1008 29.77 837 24.72 1.3 34.4 40 -10.9 12.4
15:40 1008 29.77 837 24.72 1.3 34.3 40 -11 12.2
15:45 1008 29.77 837 24.72 1.3 34.4 40 -11 12.3
15:50 1008 29.77 837 24.72 1.4 34.5 40 -10.8 12.5
15:55 1008 29.77 837 24.72 1.4 34.4 43 -10 13.9
16:00 1008 29.77 837 24.72 1.3 34.3 44 -9.8 14.3
16:05 1008 29.77 837 24.72 1.3 34.4 46 -9.1 15.6
16:10 1008 29.77 837 24.72 1.3 34.3 44 -9.6 14.6
16:15 1008 29.77 837 24.72 1.1 34 48 -8.7 16.3
16:20 1008 29.77 837 24.72 0.8 33.5 48 -9 15.8
16:25 1008 29.77 837 24.72 0.4 32.7 49 -9.2 15.4
16:30 1008 29.77 837 24.72 0.6 33 47 -9.4 15
16:35 1008 29.77 837 24.72 0.5 32.9 47 -9.6 14.7
16:40 1008 29.77 837 24.72 0.6 33 47 -9.4 15
16:45 1008 29.77 837 24.72 0.5 32.8 49 -9.2 15.5
16:50 1008 29.77 837 24.72 0.2 32.4 48 -9.5 14.9
16:55 1008 29.77 837 24.72 0.2 32.3 43 -10.9 12.4
17:00 1008 29.77 837 24.72 0.5 32.9 47 -9.4 15
17:05 1008 29.77 837 24.72 0.5 32.9 46 -9.8 14.4
17:10 1008 29.77 837 24.72 0.8 33.4 47 -9.4 15.1
17:15 1008 29.77 837 24.72 0.9 33.6 47 -9.2 15.5
17:20 1008 29.77 837 24.72 1 33.7 46 -9.3 15.3
17:25 1008 29.77 837 24.72 0.8 33.4 47 -9.2 15.4
17:30 1008 29.77 837 24.72 0.5 33 47 -9.4 15.1
17:35 1008 29.77 837 24.72 0.5 32.8 49 -9.1 15.6
17:40 1008 29.77 837 24.72 0.3 32.6 50 -8.8 16.1
17:45 1008 29.77 837 24.72 0.1 32.1 49 -9.3 15.2
17:50 1007 29.74 837 24.72 0.2 32.3 50 -9 15.7
17:55 1007 29.74 836 24.69 0.2 32.3 49 -9.2 15.4
18:00 1007 29.74 836 24.69 0.3 32.6 49 -9.3 15.3
18:05 1007 29.74 836 24.69 0.6 33.1 49 -8.8 16.1
18:10 1007 29.74 836 24.69 0.4 32.7 51 -8.6 16.5
18:15 1007 29.74 836 24.69 0.4 32.6 52 -8.4 16.9
18:20 1007 29.74 836 24.69 0.3 32.6 53 -8.1 17.4
18:25 1007 29.74 836 24.69 0.3 32.6 54 -8 17.6
18:30 1007 29.74 836 24.69 0.3 32.6 54 -7.8 18
18:35 1007 29.74 836 24.69 0.4 32.7 54 -7.8 17.9
18:40 1007 29.74 836 24.69 0.3 32.6 55 -7.6 18.3
18:45 1007 29.74 836 24.69 0.3 32.6 55 -7.6 18.2
18:50 1007 29.74 836 24.69 0.3 32.5 56 -7.5 18.5
18:55 1007 29.74 836 24.69 0.3 32.5 55 -7.7 18.2
19:00 1007 29.74 836 24.69 0.4 32.7 55 -7.6 18.3
19:05 1007 29.74 836 24.69 0.4 32.7 55 -7.6 18.3
19:10 1007 29.74 836 24.69 0.3 32.6 55 -7.6 18.3
19:15 1007 29.74 836 24.69 0.3 32.5 56 -7.4 18.7
19:20 1007 29.74 836 24.69 0.4 32.6 55 -7.5 18.4
19:25 1007 29.74 836 24.69 0.5 32.9 55 -7.6 18.4
19:30 1007 29.74 836 24.69 0.4 32.8 56 -7.4 18.6
19:35 1007 29.74 836 24.69 -0.2 31.6 59 -7.4 18.7
19:40 1007 29.74 836 24.69 -0.3 31.5 57 -7.7 18.1
19:45 1007 29.74 836 24.69 -0.8 30.5 59 -7.8 17.9
19:50 1007 29.74 836 24.69 -1.1 30 58 -8.3 17.1
19:55 1007 29.74 836 24.69 -1.4 29.5 59 -8.3 17.1
20:00 1007 29.74 836 24.69 -1.4 29.5 59 -8.4 16.9
20:05 1007 29.74 836 24.69 -1.3 29.7 58 -8.4 16.8
20:10 1007 29.74 836 24.69 -1.1 29.9 59 -8.2 17.3
20:15 1007 29.74 836 24.69 -1.2 29.9 60 -8.1 17.5
20:20 1007 29.74 836 24.69 -1.2 29.8 60 -8.1 17.4
20:25 1006 29.71 836 24.69 -1.2 29.9 57 -8.5 16.7
20:30 1006 29.71 836 24.69 -1.3 29.6 59 -8.3 17.1
20:35 1006 29.71 835 24.66 -1.4 29.4 59 -8.4 17
20:40 1006 29.71 835 24.66 -1.5 29.3 59 -8.5 16.7
20:45 1006 29.71 835 24.66 -1.5 29.3 58 -8.8 16.2
20:50 1006 29.71 836 24.69 -1.6 29.1 59 -8.7 16.3
20:55 1006 29.71 836 24.69 -1.7 29 60 -8.4 16.8
21:00 1007 29.74 836 24.69 -1.7 28.9 61 -8.2 17.3
21:05 1007 29.74 836 24.69 -1.9 28.6 64 -7.9 17.8
21:10 1007 29.74 836 24.69 -2.1 28.3 64 -7.9 17.7
21:15 1006 29.71 836 24.69 -1.8 28.8 63 -8 17.6
21:20 1007 29.74 836 24.69 -1.6 29.1 64 -7.5 18.5
21:25 1007 29.74 836 24.69 -1.6 29 61 -8.3 17.1
21:30 1006 29.71 836 24.69 -1 30.2 61 -7.6 18.4
21:35 1006 29.71 836 24.69 -1.6 29.2 64 -7.5 18.5
21:40 1006 29.71 836 24.69 -1.6 29.1 63 -7.8 18
21:45 1006 29.71 836 24.69 -1.6 29.1 63 -7.7 18.2
21:50 1006 29.71 836 24.69 -1.6 29.1 63 -7.7 18.1
21:55 1006 29.71 836 24.69 -1.4 29.4 63 -7.5 18.5
22:00 1006 29.71 836 24.69 -1.6 29.1 63 -7.8 18
22:05 1007 29.74 836 24.69 -1.4 29.4 62 -7.8 18
22:10 1007 29.74 836 24.69 -1.3 29.7 62 -7.6 18.3
22:15 1007 29.74 836 24.69 -1.3 29.6 64 -7.3 18.8
22:20 1007 29.74 836 24.69 -1.6 29.2 63 -7.6 18.3
22:25 1007 29.74 836 24.69 -1.7 28.9 65 -7.3 18.8
22:30 1007 29.74 836 24.69 -1.9 28.6 67 -7.2 19.1
22:35 1007 29.74 836 24.69 -2.1 28.3 67 -7.4 18.7
22:40 1007 29.74 836 24.69 -2.2 28.1 66 -7.7 18.1
22:45 1007 29.74 836 24.69 -2.2 28.1 66 -7.6 18.3
22:50 1007 29.74 836 24.69 -2.2 28 66 -7.6 18.3
22:55 1007 29.74 836 24.69 -2.1 28.1 67 -7.5 18.5
23:00 1007 29.74 836 24.69 -2.1 28.1 66 -7.7 18.2
23:05 1007 29.74 836 24.69 -2.2 28.1 65 -7.8 17.9
23:10 1007 29.74 836 24.69 -2.2 28 66 -7.8 18
23:15 1006 29.71 836 24.69 -2.3 27.9 67 -7.6 18.2
23:20 1006 29.71 835 24.66 -2.4 27.6 67 -7.7 18.2
23:25 1006 29.71 835 24.66 -2.5 27.4 68 -7.6 18.3
23:30 1006 29.71 835 24.66 -2.6 27.3 67 -7.9 17.7
23:35 1006 29.71 835 24.66 -2.5 27.5 66 -8 17.6
23:40 1006 29.71 835 24.66 -2.6 27.4 68 -7.7 18.2
23:45 1006 29.71 835 24.66 -2.8 27 67 -8.1 17.5
23:50 1006 29.71 835 24.66 -2.6 27.3 65 -8.2 17.2
23:55 1006 29.71 835 24.66 -2.3 27.8 64 -8.2 17.3
24:00 1006 29.71 835 24.66 -2.1 28.2 63 -8.3 17.1